sensor_id;sensor_type;location;lat;lon;timestamp;pressure;altitude;pressure_sealevel;temperature;humidity
47726;BME280;33483;48.294;16.388;2023-04-27T00:01:44;99878.38;;;5.68;100.00
47726;BME280;33483;48.294;16.388;2023-04-27T00:04:12;99865.13;;;5.72;100.00
47726;BME280;33483;48.294;16.388;2023-04-27T00:06:40;99862.66;;;5.74;100.00
47726;BME280;33483;48.294;16.388;2023-04-27T00:09:07;99876.13;;;5.72;100.00
47726;BME280;33483;48.294;16.388;2023-04-27T00:11:34;99868.38;;;5.70;100.00
47726;BME280;33483;48.294;16.388;2023-04-27T00:14:02;99869.69;;;5.75;100.00
47726;BME280;33483;48.294;16.388;2023-04-27T00:16:28;99860.94;;;5.77;100.00
47726;BME280;33483;48.294;16.388;2023-04-27T00:18:56;99860.19;;;5.76;100.00
47726;BME280;33483;48.294;16.388;2023-04-27T00:21:23;99868.44;;;5.76;100.00
47726;BME280;33483;48.294;16.388;2023-04-27T00:23:53;99857.44;;;5.76;100.00
47726;BME280;33483;48.294;16.388;2023-04-27T00:26:19;99859.47;;;5.81;100.00
47726;BME280;33483;48.294;16.388;2023-04-27T00:28:50;99855.22;;;5.80;100.00
47726;BME280;33483;48.294;16.388;2023-04-27T00:31:17;99863.06;;;5.87;100.00
47726;BME280;33483;48.294;16.388;2023-04-27T00:33:44;99862.78;;;5.85;100.00
47726;BME280;33483;48.294;16.388;2023-04-27T00:36:14;99861.03;;;5.88;100.00
47726;BME280;33483;48.294;16.388;2023-04-27T00:38:42;99855.09;;;5.89;100.00
47726;BME280;33483;48.294;16.388;2023-04-27T00:41:09;99853.56;;;5.88;100.00
47726;BME280;33483;48.294;16.388;2023-04-27T00:43:43;99851.78;;;5.85;100.00
47726;BME280;33483;48.294;16.388;2023-04-27T00:46:13;99850.25;;;5.84;100.00
47726;BME280;33483;48.294;16.388;2023-04-27T00:48:41;99850.44;;;5.81;100.00
47726;BME280;33483;48.294;16.388;2023-04-27T00:51:08;99855.22;;;5.80;100.00
47726;BME280;33483;48.294;16.388;2023-04-27T00:53:35;99847.69;;;5.75;100.00
47726;BME280;33483;48.294;16.388;2023-04-27T00:56:03;99847.91;;;5.71;100.00
47726;BME280;33483;48.294;16.388;2023-04-27T00:58:31;99844.13;;;5.69;100.00
47726;BME280;33483;48.294;16.388;2023-04-27T01:00:59;99844.00;;;5.58;100.00
47726;BME280;33483;48.294;16.388;2023-04-27T01:03:26;99837.78;;;5.57;100.00
47726;BME280;33483;48.294;16.388;2023-04-27T01:05:53;99830.44;;;5.49;100.00
47726;BME280;33483;48.294;16.388;2023-04-27T01:08:22;99834.38;;;5.42;100.00
47726;BME280;33483;48.294;16.388;2023-04-27T01:10:50;99834.53;;;5.33;100.00
47726;BME280;33483;48.294;16.388;2023-04-27T01:13:17;99842.72;;;5.28;100.00
47726;BME280;33483;48.294;16.388;2023-04-27T01:15:44;99845.41;;;5.22;100.00
47726;BME280;33483;48.294;16.388;2023-04-27T01:18:11;99844.38;;;5.20;100.00
47726;BME280;33483;48.294;16.388;2023-04-27T01:20:38;99840.63;;;5.17;100.00
47726;BME280;33483;48.294;16.388;2023-04-27T01:23:11;99844.06;;;5.12;100.00
47726;BME280;33483;48.294;16.388;2023-04-27T01:25:42;99840.75;;;5.08;100.00
47726;BME280;33483;48.294;16.388;2023-04-27T01:28:09;99853.72;;;5.08;100.00
47726;BME280;33483;48.294;16.388;2023-04-27T01:30:38;99846.19;;;5.03;100.00
47726;BME280;33483;48.294;16.388;2023-04-27T01:33:06;99845.63;;;4.99;100.00
47726;BME280;33483;48.294;16.388;2023-04-27T01:35:33;99849.91;;;5.00;100.00
47726;BME280;33483;48.294;16.388;2023-04-27T01:38:00;99850.66;;;5.00;100.00
47726;BME280;33483;48.294;16.388;2023-04-27T01:40:28;99847.44;;;5.02;100.00
47726;BME280;33483;48.294;16.388;2023-04-27T01:42:55;99850.66;;;5.00;100.00
47726;BME280;33483;48.294;16.388;2023-04-27T01:45:24;99852.94;;;5.02;100.00
47726;BME280;33483;48.294;16.388;2023-04-27T01:47:51;99845.63;;;4.99;100.00
47726;BME280;33483;48.294;16.388;2023-04-27T01:50:19;99845.63;;;4.99;100.00
47726;BME280;33483;48.294;16.388;2023-04-27T01:52:46;99852.38;;;4.98;100.00
47726;BME280;33483;48.294;16.388;2023-04-27T01:55:13;99849.34;;;4.96;100.00
47726;BME280;33483;48.294;16.388;2023-04-27T01:57:41;99857.09;;;4.97;100.00
47726;BME280;33483;48.294;16.388;2023-04-27T02:00:11;99856.81;;;4.95;100.00
47726;BME280;33483;48.294;16.388;2023-04-27T02:02:47;99856.78;;;4.90;100.00
47726;BME280;33483;48.294;16.388;2023-04-27T02:05:17;99850.44;;;4.84;100.00
47726;BME280;33483;48.294;16.388;2023-04-27T02:07:45;99856.06;;;4.75;100.00
47726;BME280;33483;48.294;16.388;2023-04-27T02:10:15;99850.72;;;4.66;100.00
47726;BME280;33483;48.294;16.388;2023-04-27T02:12:42;99856.34;;;4.56;100.00
47726;BME280;33483;48.294;16.388;2023-04-27T02:15:09;99858.75;;;4.49;100.00
47726;BME280;33483;48.294;16.388;2023-04-27T02:17:37;99855.09;;;4.37;100.00
47726;BME280;33483;48.294;16.388;2023-04-27T02:20:05;99858.16;;;4.25;100.00
47726;BME280;33483;48.294;16.388;2023-04-27T02:22:33;99871.19;;;4.15;100.00
47726;BME280;33483;48.294;16.388;2023-04-27T02:25:00;99869.53;;;4.03;100.00
47726;BME280;33483;48.294;16.388;2023-04-27T02:27:28;99866.69;;;3.98;100.00
47726;BME280;33483;48.294;16.388;2023-04-27T02:29:56;99863.88;;;3.92;100.00
47726;BME280;33483;48.294;16.388;2023-04-27T02:32:26;99867.19;;;3.82;100.00
47726;BME280;33483;48.294;16.388;2023-04-27T02:34:53;99869.56;;;3.74;100.00
47726;BME280;33483;48.294;16.388;2023-04-27T02:37:23;99865.94;;;3.68;100.00
47726;BME280;33483;48.294;16.388;2023-04-27T02:39:50;99856.13;;;3.62;100.00
47726;BME280;33483;48.294;16.388;2023-04-27T02:42:18;99861.69;;;3.53;100.00
47726;BME280;33483;48.294;16.388;2023-04-27T02:44:45;99862.81;;;3.46;100.00
47726;BME280;33483;48.294;16.388;2023-04-27T02:47:12;99856.66;;;3.36;100.00
47726;BME280;33483;48.294;16.388;2023-04-27T02:49:44;99863.28;;;3.30;100.00
47726;BME280;33483;48.294;16.388;2023-04-27T02:52:11;99870.28;;;3.31;100.00
47726;BME280;33483;48.294;16.388;2023-04-27T02:54:38;99868.00;;;3.29;100.00
47726;BME280;33483;48.294;16.388;2023-04-27T02:57:05;99870.00;;;3.29;100.00
47726;BME280;33483;48.294;16.388;2023-04-27T02:59:32;99874.22;;;3.30;100.00
47726;BME280;33483;48.294;16.388;2023-04-27T03:02:00;99875.53;;;3.20;100.00
47726;BME280;33483;48.294;16.388;2023-04-27T03:04:27;99871.97;;;3.28;100.00
47726;BME280;33483;48.294;16.388;2023-04-27T03:06:54;99871.50;;;3.30;100.00
47726;BME280;33483;48.294;16.388;2023-04-27T03:09:21;99875.75;;;3.31;100.00
47726;BME280;33483;48.294;16.388;2023-04-27T03:11:51;99869.03;;;3.32;100.00
47726;BME280;33483;48.294;16.388;2023-04-27T03:14:21;99872.44;;;3.27;100.00
47726;BME280;33483;48.294;16.388;2023-04-27T03:16:50;99870.66;;;3.24;100.00
47726;BME280;33483;48.294;16.388;2023-04-27T03:19:17;99871.56;;;3.21;100.00
47726;BME280;33483;48.294;16.388;2023-04-27T03:21:45;99881.97;;;3.17;100.00
47726;BME280;33483;48.294;16.388;2023-04-27T03:24:14;99876.25;;;3.06;100.00
47726;BME280;33483;48.294;16.388;2023-04-27T03:26:42;99874.75;;;3.05;100.00
47726;BME280;33483;48.294;16.388;2023-04-27T03:29:09;99877.38;;;2.99;100.00
47726;BME280;33483;48.294;16.388;2023-04-27T03:31:36;99880.13;;;2.99;100.00
47726;BME280;33483;48.294;16.388;2023-04-27T03:34:03;99879.81;;;2.97;100.00
47726;BME280;33483;48.294;16.388;2023-04-27T03:36:33;99881.50;;;2.95;100.00
47726;BME280;33483;48.294;16.388;2023-04-27T03:39:01;99875.28;;;2.94;100.00
47726;BME280;33483;48.294;16.388;2023-04-27T03:41:30;99885.66;;;2.90;100.00
47726;BME280;33483;48.294;16.388;2023-04-27T03:43:57;99887.06;;;2.86;100.00
47726;BME280;33483;48.294;16.388;2023-04-27T03:46:25;99884.31;;;2.86;100.00
47726;BME280;33483;48.294;16.388;2023-04-27T03:48:54;99886.28;;;2.85;100.00
47726;BME280;33483;48.294;16.388;2023-04-27T03:51:22;99891.59;;;2.89;100.00
47726;BME280;33483;48.294;16.388;2023-04-27T03:53:49;99893.69;;;2.94;100.00
47726;BME280;33483;48.294;16.388;2023-04-27T03:56:17;99896.72;;;2.96;100.00
47726;BME280;33483;48.294;16.388;2023-04-27T03:58:44;99896.53;;;2.99;100.00
47726;BME280;33483;48.294;16.388;2023-04-27T04:01:16;99903.63;;;3.06;100.00
47726;BME280;33483;48.294;16.388;2023-04-27T04:03:45;99905.25;;;3.12;100.00
47726;BME280;33483;48.294;16.388;2023-04-27T04:06:14;99906.91;;;3.19;100.00
47726;BME280;33483;48.294;16.388;2023-04-27T04:08:41;99909.28;;;3.26;100.00
47726;BME280;33483;48.294;16.388;2023-04-27T04:11:08;99907.69;;;3.34;100.00
47726;BME280;33483;48.294;16.388;2023-04-27T04:13:36;99909.59;;;3.42;100.00
47726;BME280;33483;48.294;16.388;2023-04-27T04:16:04;99909.97;;;3.50;100.00
47726;BME280;33483;48.294;16.388;2023-04-27T04:18:32;99911.59;;;3.57;100.00
47726;BME280;33483;48.294;16.388;2023-04-27T04:21:02;99913.00;;;3.67;100.00
47726;BME280;33483;48.294;16.388;2023-04-27T04:23:29;99899.41;;;3.72;100.00
47726;BME280;33483;48.294;16.388;2023-04-27T04:25:58;99905.56;;;3.82;100.00
47726;BME280;33483;48.294;16.388;2023-04-27T04:28:31;99913.22;;;3.92;100.00
47726;BME280;33483;48.294;16.388;2023-04-27T04:31:01;99912.09;;;3.99;100.00
47726;BME280;33483;48.294;16.388;2023-04-27T04:33:31;99918.59;;;4.16;100.00
47726;BME280;33483;48.294;16.388;2023-04-27T04:36:01;99921.16;;;4.19;100.00
47726;BME280;33483;48.294;16.388;2023-04-27T04:38:29;99919.59;;;4.33;100.00
47726;BME280;33483;48.294;16.388;2023-04-27T04:40:59;99920.25;;;4.42;100.00
47726;BME280;33483;48.294;16.388;2023-04-27T04:43:30;99915.56;;;4.63;100.00
47726;BME280;33483;48.294;16.388;2023-04-27T04:45:57;99927.06;;;4.82;100.00
47726;BME280;33483;48.294;16.388;2023-04-27T04:48:24;99924.94;;;4.91;100.00
47726;BME280;33483;48.294;16.388;2023-04-27T04:50:51;99925.91;;;5.08;100.00
47726;BME280;33483;48.294;16.388;2023-04-27T04:53:21;99927.41;;;5.29;100.00
47726;BME280;33483;48.294;16.388;2023-04-27T04:55:48;99921.97;;;5.55;100.00
47726;BME280;33483;48.294;16.388;2023-04-27T04:58:15;99926.88;;;5.71;100.00
47726;BME280;33483;48.294;16.388;2023-04-27T05:00:43;99932.34;;;5.91;100.00
47726;BME280;33483;48.294;16.388;2023-04-27T05:03:10;99924.34;;;6.19;100.00
47726;BME280;33483;48.294;16.388;2023-04-27T05:05:40;99940.34;;;6.51;100.00
47726;BME280;33483;48.294;16.388;2023-04-27T05:08:07;99941.56;;;6.87;100.00
47726;BME280;33483;48.294;16.388;2023-04-27T05:10:34;99937.75;;;7.21;100.00
47726;BME280;33483;48.294;16.388;2023-04-27T05:13:01;99940.66;;;7.60;100.00
47726;BME280;33483;48.294;16.388;2023-04-27T05:15:31;99948.00;;;8.18;100.00
47726;BME280;33483;48.294;16.388;2023-04-27T05:17:58;99950.56;;;8.49;100.00
47726;BME280;33483;48.294;16.388;2023-04-27T05:20:25;99948.03;;;8.73;100.00
47726;BME280;33483;48.294;16.388;2023-04-27T05:22:52;99950.91;;;9.20;100.00
47726;BME280;33483;48.294;16.388;2023-04-27T05:25:19;99960.00;;;9.72;94.66
47726;BME280;33483;48.294;16.388;2023-04-27T05:27:46;99956.00;;;10.08;83.64
47726;BME280;33483;48.294;16.388;2023-04-27T05:30:13;99968.72;;;10.28;80.15
47726;BME280;33483;48.294;16.388;2023-04-27T05:32:43;99963.75;;;10.20;84.80
47726;BME280;33483;48.294;16.388;2023-04-27T05:35:11;99962.78;;;10.18;73.88
47726;BME280;33483;48.294;16.388;2023-04-27T05:37:38;99965.13;;;9.97;66.49
47726;BME280;33483;48.294;16.388;2023-04-27T05:40:08;99965.38;;;9.99;67.38
47726;BME280;33483;48.294;16.388;2023-04-27T05:42:36;99972.63;;;10.02;68.43
47726;BME280;33483;48.294;16.388;2023-04-27T05:45:04;99971.28;;;10.20;67.33
47726;BME280;33483;48.294;16.388;2023-04-27T05:47:31;99971.03;;;9.77;75.00
47726;BME280;33483;48.294;16.388;2023-04-27T05:49:58;99972.88;;;9.64;75.11
47726;BME280;33483;48.294;16.388;2023-04-27T05:52:25;99981.97;;;9.53;77.36
47726;BME280;33483;48.294;16.388;2023-04-27T05:54:57;99976.44;;;9.53;80.25
47726;BME280;33483;48.294;16.388;2023-04-27T05:57:24;99988.50;;;9.56;78.71
47726;BME280;33483;48.294;16.388;2023-04-27T05:59:52;99989.22;;;9.62;75.92
47726;BME280;33483;48.294;16.388;2023-04-27T06:02:21;99986.94;;;10.17;73.44
47726;BME280;33483;48.294;16.388;2023-04-27T06:04:49;99993.53;;;11.03;65.51
47726;BME280;33483;48.294;16.388;2023-04-27T06:07:16;99994.34;;;11.84;60.31
47726;BME280;33483;48.294;16.388;2023-04-27T06:09:46;99994.19;;;11.95;61.95
47726;BME280;33483;48.294;16.388;2023-04-27T06:12:13;100010.53;;;11.37;53.52
47726;BME280;33483;48.294;16.388;2023-04-27T06:14:40;100008.41;;;11.49;53.42
47726;BME280;33483;48.294;16.388;2023-04-27T06:17:07;100010.88;;;11.76;52.47
47726;BME280;33483;48.294;16.388;2023-04-27T06:19:39;100010.94;;;11.89;51.50
47726;BME280;33483;48.294;16.388;2023-04-27T06:22:06;100012.28;;;11.83;51.90
47726;BME280;33483;48.294;16.388;2023-04-27T06:24:34;100014.47;;;11.71;52.37
47726;BME280;33483;48.294;16.388;2023-04-27T06:27:02;100017.00;;;11.21;51.95
47726;BME280;33483;48.294;16.388;2023-04-27T06:29:29;100018.00;;;11.23;53.78
47726;BME280;33483;48.294;16.388;2023-04-27T06:31:59;100006.16;;;11.47;59.75
47726;BME280;33483;48.294;16.388;2023-04-27T06:34:26;100020.91;;;11.79;52.21
47726;BME280;33483;48.294;16.388;2023-04-27T06:36:54;100018.38;;;12.00;50.69
47726;BME280;33483;48.294;16.388;2023-04-27T06:39:21;100020.56;;;11.70;49.54
47726;BME280;33483;48.294;16.388;2023-04-27T06:41:48;100024.59;;;11.87;48.15
47726;BME280;33483;48.294;16.388;2023-04-27T06:44:18;100031.22;;;12.03;47.46
47726;BME280;33483;48.294;16.388;2023-04-27T06:46:45;100030.63;;;12.10;48.16
47726;BME280;33483;48.294;16.388;2023-04-27T06:49:12;100026.22;;;12.33;46.35
47726;BME280;33483;48.294;16.388;2023-04-27T06:51:39;100026.84;;;12.44;45.34
47726;BME280;33483;48.294;16.388;2023-04-27T06:54:07;100035.81;;;12.51;45.09
47726;BME280;33483;48.294;16.388;2023-04-27T06:56:34;100029.44;;;13.00;48.59
47726;BME280;33483;48.294;16.388;2023-04-27T06:59:04;100034.59;;;13.09;46.58
47726;BME280;33483;48.294;16.388;2023-04-27T07:01:31;100033.16;;;13.34;44.95
47726;BME280;33483;48.294;16.388;2023-04-27T07:03:58;100026.94;;;13.41;45.97
47726;BME280;33483;48.294;16.388;2023-04-27T07:06:26;100032.28;;;13.79;44.66
47726;BME280;33483;48.294;16.388;2023-04-27T07:08:54;100020.69;;;14.21;44.80
47726;BME280;33483;48.294;16.388;2023-04-27T07:11:21;100019.22;;;14.95;44.32
47726;BME280;33483;48.294;16.388;2023-04-27T07:13:49;100016.09;;;15.55;41.49
47726;BME280;33483;48.294;16.388;2023-04-27T07:16:18;100025.19;;;16.42;40.39
47726;BME280;33483;48.294;16.388;2023-04-27T07:18:47;100025.63;;;16.03;38.14
47726;BME280;33483;48.294;16.388;2023-04-27T07:21:14;100020.47;;;16.22;40.46
47726;BME280;33483;48.294;16.388;2023-04-27T07:23:41;100027.31;;;16.64;39.58
47726;BME280;33483;48.294;16.388;2023-04-27T07:26:09;100028.78;;;17.18;38.41
47726;BME280;33483;48.294;16.388;2023-04-27T07:28:36;100033.84;;;17.19;34.70
47726;BME280;33483;48.294;16.388;2023-04-27T07:31:04;100035.53;;;16.77;33.85
47726;BME280;33483;48.294;16.388;2023-04-27T07:33:35;100034.03;;;16.99;34.09
47726;BME280;33483;48.294;16.388;2023-04-27T07:36:02;100027.84;;;16.55;34.54
47726;BME280;33483;48.294;16.388;2023-04-27T07:38:30;100040.19;;;16.09;32.82
47726;BME280;33483;48.294;16.388;2023-04-27T07:40:58;100028.41;;;15.59;33.94
47726;BME280;33483;48.294;16.388;2023-04-27T07:43:27;100027.44;;;15.57;34.81
47726;BME280;33483;48.294;16.388;2023-04-27T07:45:55;100030.34;;;15.16;37.39
47726;BME280;33483;48.294;16.388;2023-04-27T07:48:24;100033.50;;;15.40;34.76
47726;BME280;33483;48.294;16.388;2023-04-27T07:50:51;100031.13;;;15.24;34.43
47726;BME280;33483;48.294;16.388;2023-04-27T07:53:18;100023.00;;;15.05;35.46
47726;BME280;33483;48.294;16.388;2023-04-27T07:55:48;100029.53;;;15.56;35.44
47726;BME280;33483;48.294;16.388;2023-04-27T07:58:15;100036.03;;;15.03;35.18
47726;BME280;33483;48.294;16.388;2023-04-27T08:00:42;100033.69;;;15.14;35.37
47726;BME280;33483;48.294;16.388;2023-04-27T08:03:10;100037.38;;;14.89;35.27
47726;BME280;33483;48.294;16.388;2023-04-27T08:05:37;100036.38;;;14.99;35.53
47726;BME280;33483;48.294;16.388;2023-04-27T08:08:05;100034.81;;;15.19;35.58
47726;BME280;33483;48.294;16.388;2023-04-27T08:10:33;100038.13;;;15.10;36.40
47726;BME280;33483;48.294;16.388;2023-04-27T08:13:00;100028.19;;;15.29;34.92
47726;BME280;33483;48.294;16.388;2023-04-27T08:15:27;100037.50;;;15.52;34.07
47726;BME280;33483;48.294;16.388;2023-04-27T08:17:55;100040.25;;;15.45;32.94
47726;BME280;33483;48.294;16.388;2023-04-27T08:20:24;100042.69;;;15.48;33.14
47726;BME280;33483;48.294;16.388;2023-04-27T08:22:52;100036.50;;;15.70;32.52
47726;BME280;33483;48.294;16.388;2023-04-27T08:25:19;100045.81;;;15.45;31.96
47726;BME280;33483;48.294;16.388;2023-04-27T08:27:49;100042.09;;;15.42;31.90
47726;BME280;33483;48.294;16.388;2023-04-27T08:30:21;100037.50;;;15.52;36.20
47726;BME280;33483;48.294;16.388;2023-04-27T08:32:50;100041.09;;;15.32;32.05
47726;BME280;33483;48.294;16.388;2023-04-27T08:35:17;100041.47;;;15.64;32.29
47726;BME280;33483;48.294;16.388;2023-04-27T08:37:45;100041.19;;;15.47;32.44
47726;BME280;33483;48.294;16.388;2023-04-27T08:40:12;100039.19;;;15.55;33.33
47726;BME280;33483;48.294;16.388;2023-04-27T08:42:40;100030.69;;;16.12;33.55
47726;BME280;33483;48.294;16.388;2023-04-27T08:45:08;100045.66;;;16.29;31.55
47726;BME280;33483;48.294;16.388;2023-04-27T08:47:35;100039.47;;;16.23;31.09
47726;BME280;33483;48.294;16.388;2023-04-27T08:50:12;100043.22;;;16.26;32.47
47726;BME280;33483;48.294;16.388;2023-04-27T08:52:39;100037.63;;;16.26;33.90
47726;BME280;33483;48.294;16.388;2023-04-27T08:55:06;100047.16;;;16.23;32.12
47726;BME280;33483;48.294;16.388;2023-04-27T08:57:34;100041.66;;;16.60;31.94
47726;BME280;33483;48.294;16.388;2023-04-27T09:00:02;100051.94;;;16.73;29.96
47726;BME280;33483;48.294;16.388;2023-04-27T09:02:47;100050.06;;;17.28;32.76
47726;BME280;33483;48.294;16.388;2023-04-27T09:05:15;100049.91;;;17.04;32.03
47726;BME280;33483;48.294;16.388;2023-04-27T09:07:54;100053.25;;;17.40;30.75
47726;BME280;33483;48.294;16.388;2023-04-27T09:10:21;100046.53;;;17.50;30.27
47726;BME280;33483;48.294;16.388;2023-04-27T09:12:58;100039.66;;;18.38;31.08
47726;BME280;33483;48.294;16.388;2023-04-27T09:15:26;100052.06;;;18.20;28.72
47726;BME280;33483;48.294;16.388;2023-04-27T09:17:55;100041.84;;;18.55;31.14
47726;BME280;33483;48.294;16.388;2023-04-27T09:20:22;100045.59;;;18.50;28.89
47726;BME280;33483;48.294;16.388;2023-04-27T09:22:52;100042.91;;;17.80;34.36
47726;BME280;33483;48.294;16.388;2023-04-27T09:25:27;100034.97;;;17.46;29.95
47726;BME280;33483;48.294;16.388;2023-04-27T09:27:58;100035.13;;;17.33;34.56
47726;BME280;33483;48.294;16.388;2023-04-27T09:30:28;100042.22;;;17.42;29.18
47726;BME280;33483;48.294;16.388;2023-04-27T09:32:56;100040.00;;;17.48;29.21
47726;BME280;33483;48.294;16.388;2023-04-27T09:35:27;100044.31;;;17.19;30.31
47726;BME280;33483;48.294;16.388;2023-04-27T09:37:59;100041.47;;;17.26;30.07
47726;BME280;33483;48.294;16.388;2023-04-27T09:40:29;100036.59;;;17.64;29.93
47726;BME280;33483;48.294;16.388;2023-04-27T09:42:58;100028.38;;;18.14;32.95
47726;BME280;33483;48.294;16.388;2023-04-27T09:45:29;100039.28;;;17.94;29.72
47726;BME280;33483;48.294;16.388;2023-04-27T09:48:01;100036.25;;;18.08;28.79
47726;BME280;33483;48.294;16.388;2023-04-27T09:50:28;100041.25;;;18.17;28.10
47726;BME280;33483;48.294;16.388;2023-04-27T09:52:56;100042.47;;;18.31;28.22
47726;BME280;33483;48.294;16.388;2023-04-27T09:55:28;100036.19;;;17.75;29.45
47726;BME280;33483;48.294;16.388;2023-04-27T09:58:00;100026.34;;;17.44;29.93
47726;BME280;33483;48.294;16.388;2023-04-27T10:08:04;100015.28;;;18.48;28.93
47726;BME280;33483;48.294;16.388;2023-04-27T10:10:41;100020.84;;;19.05;29.27
47726;BME280;33483;48.294;16.388;2023-04-27T10:13:18;100020.06;;;19.29;29.00
47726;BME280;33483;48.294;16.388;2023-04-27T10:15:45;100015.66;;;19.43;28.08
47726;BME280;33483;48.294;16.388;2023-04-27T10:18:13;100013.19;;;19.05;29.98
47726;BME280;33483;48.294;16.388;2023-04-27T10:20:50;100009.06;;;18.25;28.93
47726;BME280;33483;48.294;16.388;2023-04-27T10:23:22;100006.50;;;17.57;29.31
47726;BME280;33483;48.294;16.388;2023-04-27T10:25:49;100002.31;;;17.88;29.71
47726;BME280;33483;48.294;16.388;2023-04-27T10:28:18;99997.97;;;17.25;29.48
47726;BME280;33483;48.294;16.388;2023-04-27T10:30:46;99993.69;;;17.24;30.44
47726;BME280;33483;48.294;16.388;2023-04-27T10:33:17;99992.84;;;17.69;30.21
47726;BME280;33483;48.294;16.388;2023-04-27T10:35:52;99995.59;;;17.07;29.78
47726;BME280;33483;48.294;16.388;2023-04-27T10:38:29;99994.88;;;17.76;29.33
47726;BME280;33483;48.294;16.388;2023-04-27T10:41:00;99988.22;;;18.04;30.69
47726;BME280;33483;48.294;16.388;2023-04-27T10:43:29;99986.50;;;17.68;29.06
47726;BME280;33483;48.294;16.388;2023-04-27T10:46:10;99992.34;;;18.03;29.81
47726;BME280;33483;48.294;16.388;2023-04-27T10:48:41;99983.63;;;18.23;28.38
47726;BME280;33483;48.294;16.388;2023-04-27T10:51:14;99983.91;;;18.91;28.66
47726;BME280;33483;48.294;16.388;2023-04-27T10:53:42;99987.16;;;18.24;29.29
47726;BME280;33483;48.294;16.388;2023-04-27T10:56:09;99984.19;;;18.54;28.57
47726;BME280;33483;48.294;16.388;2023-04-27T10:58:37;99976.22;;;17.63;29.62
47726;BME280;33483;48.294;16.388;2023-04-27T11:01:07;99974.84;;;16.95;30.47
47726;BME280;33483;48.294;16.388;2023-04-27T11:03:34;99972.47;;;16.91;31.21
47726;BME280;33483;48.294;16.388;2023-04-27T11:06:03;99976.72;;;17.07;31.88
47726;BME280;33483;48.294;16.388;2023-04-27T11:08:30;99974.84;;;16.95;33.19
47726;BME280;33483;48.294;16.388;2023-04-27T11:10:59;99981.53;;;16.39;31.34
47726;BME280;33483;48.294;16.388;2023-04-27T11:13:27;99978.25;;;15.90;32.14
47726;BME280;33483;48.294;16.388;2023-04-27T11:15:59;99974.00;;;16.11;32.44
47726;BME280;33483;48.294;16.388;2023-04-27T11:18:28;99971.94;;;15.97;32.11
47726;BME280;33483;48.294;16.388;2023-04-27T11:23:34;99977.13;;;15.93;33.41
47726;BME280;33483;48.294;16.388;2023-04-27T11:26:08;99971.28;;;16.41;33.25
47726;BME280;33483;48.294;16.388;2023-04-27T11:28:37;99978.22;;;16.48;32.94
47726;BME280;33483;48.294;16.388;2023-04-27T11:31:07;99966.97;;;16.33;32.52
47726;BME280;33483;48.294;16.388;2023-04-27T11:33:35;99971.69;;;16.60;32.49
47726;BME280;33483;48.294;16.388;2023-04-27T11:36:02;99973.22;;;16.61;32.89
47726;BME280;33483;48.294;16.388;2023-04-27T11:38:32;99975.44;;;16.70;32.14
47726;BME280;33483;48.294;16.388;2023-04-27T11:41:03;99971.69;;;16.91;32.48
47726;BME280;33483;48.294;16.388;2023-04-27T11:43:31;99968.88;;;17.06;31.85
47726;BME280;33483;48.294;16.388;2023-04-27T11:46:05;99960.88;;;16.72;32.95
47726;BME280;33483;48.294;16.388;2023-04-27T11:48:34;99954.53;;;16.94;32.53
47726;BME280;33483;48.294;16.388;2023-04-27T11:51:03;99969.28;;;16.87;32.96
47726;BME280;33483;48.294;16.388;2023-04-27T11:53:31;99964.25;;;16.78;32.48
47726;BME280;33483;48.294;16.388;2023-04-27T11:56:01;99949.69;;;16.87;35.97
47726;BME280;33483;48.294;16.388;2023-04-27T11:58:32;99960.47;;;16.98;33.39
47726;BME280;33483;48.294;16.388;2023-04-27T12:00:59;99968.34;;;16.47;33.02
47726;BME280;33483;48.294;16.388;2023-04-27T12:03:29;99953.88;;;16.05;34.05
47726;BME280;33483;48.294;16.388;2023-04-27T12:05:57;99949.56;;;16.04;33.81
47726;BME280;33483;48.294;16.388;2023-04-27T12:08:42;99944.03;;;16.34;34.69
47726;BME280;33483;48.294;16.388;2023-04-27T12:11:09;99944.81;;;16.35;33.42
47726;BME280;33483;48.294;16.388;2023-04-27T12:13:36;99947.44;;;16.70;32.90
47726;BME280;33483;48.294;16.388;2023-04-27T12:16:06;99947.06;;;16.44;32.79
47726;BME280;33483;48.294;16.388;2023-04-27T12:18:35;99933.66;;;16.57;35.03
47726;BME280;33483;48.294;16.388;2023-04-27T12:21:05;99935.31;;;16.60;33.05
47726;BME280;33483;48.294;16.388;2023-04-27T12:23:34;99926.94;;;16.68;35.27
47726;BME280;33483;48.294;16.388;2023-04-27T12:26:04;99930.63;;;17.01;34.98
47726;BME280;33483;48.294;16.388;2023-04-27T12:28:31;99931.00;;;16.97;34.29
47726;BME280;33483;48.294;16.388;2023-04-27T12:31:04;99936.22;;;17.08;34.29
47726;BME280;33483;48.294;16.388;2023-04-27T12:33:31;99932.50;;;16.91;32.19
47726;BME280;33483;48.294;16.388;2023-04-27T12:35:59;99918.84;;;16.95;32.50
47726;BME280;33483;48.294;16.388;2023-04-27T12:38:26;99915.50;;;16.96;32.98
47726;BME280;33483;48.294;16.388;2023-04-27T12:40:53;99914.41;;;16.84;33.66
47726;BME280;33483;48.294;16.388;2023-04-27T12:43:20;99913.47;;;16.74;32.29
47726;BME280;33483;48.294;16.388;2023-04-27T12:45:47;99913.13;;;16.62;31.97
47726;BME280;33483;48.294;16.388;2023-04-27T12:48:15;99908.22;;;16.93;32.83
47726;BME280;33483;48.294;16.388;2023-04-27T12:50:43;99914.19;;;16.97;32.55
47726;BME280;33483;48.294;16.388;2023-04-27T12:53:10;99915.31;;;16.94;32.19
47726;BME280;33483;48.294;16.388;2023-04-27T12:55:40;99912.34;;;16.92;29.13
47726;BME280;33483;48.294;16.388;2023-04-27T12:58:07;99919.41;;;17.01;30.44
47726;BME280;33483;48.294;16.388;2023-04-27T13:00:34;99911.53;;;17.14;31.80
47726;BME280;33483;48.294;16.388;2023-04-27T13:03:01;99918.69;;;16.93;32.06
47726;BME280;33483;48.294;16.388;2023-04-27T13:05:29;99916.09;;;16.57;32.63